KTEW

Details ICAO KTEW
Name MASON JEWETT FLD
Region United States
Timezone America/Detroit (UTC-5.0)
Plans Departing 1
Arriving 1
Stats Elevation 919 ft / 280 m (AMSL)
Location 42.565768° -84.423218°
Runways 1
Magnetic Variation 6.561° W
Sunrise 2017-12-18 13:04:05 UTC / 2017-12-18 08:04:05 Local
Sunset 2017-12-18 22:07:27 UTC / 2017-12-18 17:07:27 Local
Advertisement - Login to hide

Runways

ID Width Length Bearing (true) Bearing (mag) Surface Threshold Offset Overrun Length
09 75 ft / 23 m 3,991 ft / 1,216 m 90.13° 96.69° Asphalt 0 ft / 0 m 0 ft / 0 m
27 75 ft / 23 m 3,991 ft / 1,216 m 270.14° 276.70° Asphalt 0 ft / 0 m 0 ft / 0 m

Map

Weather


0- 5 10 15 20 25 30 35+ Temperature / ° C

Clouds and Precipitation
Forecast for 2017-12-18 18:00 UTC. Updated an hour ago

Ground ~20,000 ft ~40,000 ft Winds

METAR

KTEW 181615Z AUTO 23006KT 1SM BR OVC003 04/02 A2990 RMK AO2 T00400022

TAF

Not found

Frequencies

Recorded 119.42 MHz AWOS 3
Approach 118.65 MHz LANSING APP/DEP
Unicom 122.70 MHz CTAF/UNICOM
Warning: Do not use this data for real-world aviation or navigation. No guarantee of current accuracy is given.